Time;durP1;ratioP1;P1;durP2;ratioP2;P2;SDS_P1;SDS_P2;PMS_P1;PMS_P2;Temp;Humidity;BMP_temperature;BMP_pressure;BME280_temperature;BME280_humidity;BME280_pressure;Samples;Min_cycle;Max_cycle;Signal;HPM_P1;HPM_P2
2023/08/12 00:01:49;;;;;;;3.17;2.17;;;;;;;;;;4994207;28;20177;-49
2023/08/12 00:04:16;;;;;;;4.35;2.40;;;;;;;;;;4994698;28;20264;-49
2023/08/12 00:06:42;;;;;;;3.17;2.42;;;;;;;;;;4994213;28;20576;-49
2023/08/12 00:09:08;;;;;;;2.95;2.60;;;;;;;;;;4992984;28;20184;-49
2023/08/12 00:11:35;;;;;;;4.43;2.30;;;;;;;;;;4993963;28;20325;-49
2023/08/12 00:14:01;;;;;;;4.15;2.55;;;;;;;;;;4995799;28;20189;-49
2023/08/12 00:16:27;;;;;;;4.30;2.35;;;;;;;;;;4998039;28;20196;-49
2023/08/12 00:18:53;;;;;;;2.50;2.30;;;;;;;;;;4987941;28;20263;-49
2023/08/12 00:21:19;;;;;;;3.78;2.30;;;;;;;;;;4995177;28;20332;-49
2023/08/12 00:23:47;;;;;;;3.05;2.38;;;;;;;;;;4997352;28;20192;-49
2023/08/12 00:26:13;;;;;;;4.82;2.03;;;;;;;;;;4998219;28;20181;-48
2023/08/12 00:28:39;;;;;;;3.80;2.45;;;;;;;;;;5001098;28;20200;-50
2023/08/12 00:31:05;;;;;;;2.20;2.00;;;;;;;;;;4998513;28;20181;-48
2023/08/12 00:33:31;;;;;;;2.80;2.38;;;;;;;;;;4995510;28;20189;-50
2023/08/12 00:35:57;;;;;;;2.65;2.28;;;;;;;;;;4997879;28;20181;-49
2023/08/12 00:38:23;;;;;;;2.60;2.22;;;;;;;;;;4997587;28;20205;-49
2023/08/12 00:40:49;;;;;;;4.30;2.35;;;;;;;;;;4994676;28;20189;-49
2023/08/12 00:43:15;;;;;;;2.53;2.33;;;;;;;;;;4997355;28;20264;-49
2023/08/12 00:45:41;;;;;;;3.45;2.55;;;;;;;;;;4987937;28;20210;-49
2023/08/12 00:48:08;;;;;;;3.92;2.67;;;;;;;;;;4997063;28;20174;-49
2023/08/12 00:50:36;;;;;;;2.50;2.30;;;;;;;;;;4994205;28;20243;-49
2023/08/12 00:53:02;;;;;;;2.97;2.47;;;;;;;;;;4997569;28;20204;-49
2023/08/12 00:55:28;;;;;;;2.97;2.10;;;;;;;;;;4995126;28;20180;-49
2023/08/12 00:57:54;;;;;;;3.00;2.20;;;;;;;;;;5016740;28;20768;-49
2023/08/12 01:00:20;;;;;;;2.22;2.03;;;;;;;;;;5002502;28;20217;-49
2023/08/12 01:02:48;;;;;;;2.67;2.33;;;;;;;;;;4991839;28;20640;-49
2023/08/12 01:05:14;;;;;;;2.83;2.55;;;;;;;;;;4995141;28;20272;-49
2023/08/12 01:07:40;;;;;;;2.63;2.42;;;;;;;;;;4997375;28;20192;-49
2023/08/12 01:10:07;;;;;;;3.45;1.98;;;;;;;;;;4995909;28;20185;-48
2023/08/12 01:12:35;;;;;;;3.20;2.22;;;;;;;;;;4997022;28;20224;-49
2023/08/12 01:15:21;;;;;;;2.40;2.20;;;;;;;;;;4997266;28;20221;-48
2023/08/12 01:17:51;;;;;;;2.75;2.22;;;;;;;;;;4997224;28;20572;-49
2023/08/12 01:20:18;;;;;;;2.40;2.20;;;;;;;;;;4990422;28;20223;-49
2023/08/12 01:22:45;;;;;;;2.10;1.92;;;;;;;;;;4996005;28;20192;-49
2023/08/12 01:25:11;;;;;;;2.35;2.15;;;;;;;;;;4997141;28;20178;-49
2023/08/12 01:27:37;;;;;;;4.03;2.10;;;;;;;;;;4997985;28;20570;-49
2023/08/12 01:30:05;;;;;;;3.53;2.17;;;;;;;;;;5013234;28;20196;-49
2023/08/12 01:32:43;;;;;;;3.13;2.15;;;;;;;;;;4990472;28;20635;-49
2023/08/12 01:35:09;;;;;;;2.30;2.10;;;;;;;;;;4996564;28;20192;-49
2023/08/12 01:37:36;;;;;;;3.08;2.20;;;;;;;;;;4993279;28;20189;-49
2023/08/12 01:40:05;;;;;;;4.43;2.55;;;;;;;;;;4994671;28;20216;-49
2023/08/12 01:42:33;;;;;;;4.38;2.13;;;;;;;;;;4989284;28;20193;-49
2023/08/12 01:45:01;;;;;;;2.13;1.92;;;;;;;;;;4996766;28;20196;-48
2023/08/12 01:47:27;;;;;;;2.53;2.33;;;;;;;;;;4996895;28;20191;-49
2023/08/12 01:49:52;;;;;;;2.33;2.10;;;;;;;;;;4993275;28;20190;-49
2023/08/12 01:52:18;;;;;;;3.83;2.15;;;;;;;;;;4994737;28;20197;-49
2023/08/12 01:54:44;;;;;;;2.45;2.25;;;;;;;;;;4993699;28;20240;-49
2023/08/12 01:57:11;;;;;;;2.25;2.00;;;;;;;;;;4997928;28;20220;-50
2023/08/12 01:59:37;;;;;;;2.30;2.05;;;;;;;;;;4993591;28;20313;-49
2023/08/12 02:02:03;;;;;;;2.97;2.20;;;;;;;;;;4988294;28;20522;-48
2023/08/12 02:04:29;;;;;;;2.38;2.17;;;;;;;;;;4995199;28;20259;-48
2023/08/12 02:06:55;;;;;;;2.65;2.45;;;;;;;;;;4996552;28;20187;-48
2023/08/12 02:09:22;;;;;;;2.30;2.10;;;;;;;;;;4992347;28;20220;-49
2023/08/12 02:11:48;;;;;;;2.22;2.10;;;;;;;;;;4993677;28;20619;-48
2023/08/12 02:14:14;;;;;;;2.97;1.98;;;;;;;;;;4996132;28;20231;-48
2023/08/12 02:16:40;;;;;;;3.33;2.33;;;;;;;;;;4994554;28;20224;-49
2023/08/12 02:19:06;;;;;;;2.60;2.15;;;;;;;;;;4996125;28;20239;-48
2023/08/12 02:21:32;;;;;;;2.30;2.10;;;;;;;;;;5002307;28;20207;-49
2023/08/12 02:23:58;;;;;;;7.40;2.28;;;;;;;;;;4999746;28;20192;-49
2023/08/12 02:26:24;;;;;;;2.97;2.45;;;;;;;;;;4986421;28;20181;-49
2023/08/12 02:28:50;;;;;;;2.42;2.22;;;;;;;;;;4993678;28;20422;-49
2023/08/12 02:31:16;;;;;;;2.17;1.98;;;;;;;;;;4993885;28;20494;-49
2023/08/12 02:33:42;;;;;;;2.30;1.92;;;;;;;;;;5015280;28;20234;-49
2023/08/12 02:36:08;;;;;;;4.10;2.50;;;;;;;;;;5000672;28;20185;-49
2023/08/12 02:38:34;;;;;;;5.57;2.47;;;;;;;;;;4987502;28;20217;-49
2023/08/12 02:41:00;;;;;;;2.70;2.13;;;;;;;;;;4985223;28;20444;-49
2023/08/12 02:43:26;;;;;;;2.40;2.20;;;;;;;;;;4995628;28;20576;-49
2023/08/12 02:45:52;;;;;;;2.33;2.13;;;;;;;;;;4991546;28;20189;-48
2023/08/12 02:48:18;;;;;;;3.75;2.35;;;;;;;;;;4984526;28;20246;-49
2023/08/12 02:50:44;;;;;;;3.35;2.13;;;;;;;;;;4989913;28;20648;-49
2023/08/12 02:53:10;;;;;;;1.80;1.70;;;;;;;;;;5005768;28;20584;-48
2023/08/12 02:55:37;;;;;;;2.40;2.10;;;;;;;;;;4994416;28;20185;-48
2023/08/12 02:58:03;;;;;;;4.50;2.25;;;;;;;;;;4985663;28;20173;-49
2023/08/12 03:00:29;;;;;;;2.38;2.17;;;;;;;;;;4989580;28;20219;-49
2023/08/12 03:02:55;;;;;;;2.15;1.88;;;;;;;;;;4994010;28;20262;-49
2023/08/12 03:05:22;;;;;;;3.08;2.28;;;;;;;;;;4993544;28;20186;-49
2023/08/12 03:07:48;;;;;;;1.85;1.75;;;;;;;;;;4987293;28;20256;-49
2023/08/12 03:10:14;;;;;;;2.30;2.10;;;;;;;;;;4994845;28;20803;-49
2023/08/12 03:12:40;;;;;;;2.40;2.20;;;;;;;;;;4994648;28;20283;-49
2023/08/12 03:15:07;;;;;;;2.30;2.08;;;;;;;;;;4993912;28;20213;-49
2023/08/12 03:17:33;;;;;;;3.35;2.33;;;;;;;;;;4994978;28;20271;-49
2023/08/12 03:19:59;;;;;;;2.30;2.10;;;;;;;;;;4995561;28;20332;-49
2023/08/12 03:22:26;;;;;;;2.08;1.90;;;;;;;;;;4995096;28;20456;-49
2023/08/12 03:24:52;;;;;;;2.33;2.13;;;;;;;;;;4992101;28;20181;-49
2023/08/12 03:27:17;;;;;;;1.92;1.80;;;;;;;;;;4989904;28;20188;-49
2023/08/12 03:29:43;;;;;;;3.05;2.40;;;;;;;;;;4995341;28;20308;-49
2023/08/12 03:32:09;;;;;;;3.55;1.98;;;;;;;;;;5008570;28;20314;-48
2023/08/12 03:34:35;;;;;;;2.28;2.08;;;;;;;;;;5005733;28;20518;-49
2023/08/12 03:37:01;;;;;;;3.83;1.80;;;;;;;;;;5002952;28;20193;-49
2023/08/12 03:39:27;;;;;;;2.95;1.77;;;;;;;;;;4995269;28;20240;-49
2023/08/12 03:41:53;;;;;;;2.10;1.90;;;;;;;;;;4987406;28;20245;-49
2023/08/12 03:44:19;;;;;;;2.25;2.05;;;;;;;;;;5014956;28;20200;-49
2023/08/12 03:46:45;;;;;;;2.20;2.00;;;;;;;;;;5007244;28;20193;-49
2023/08/12 03:49:11;;;;;;;3.08;2.05;;;;;;;;;;4995678;28;20181;-49
2023/08/12 03:51:37;;;;;;;2.33;2.13;;;;;;;;;;4988107;28;20189;-49
2023/08/12 03:54:03;;;;;;;2.83;2.00;;;;;;;;;;4995544;28;20185;-49
2023/08/12 03:56:29;;;;;;;2.50;2.20;;;;;;;;;;4997589;28;20462;-49
2023/08/12 03:58:55;;;;;;;2.60;1.77;;;;;;;;;;4996155;28;20208;-49
2023/08/12 04:01:21;;;;;;;2.45;2.10;;;;;;;;;;4994886;28;20185;-49
2023/08/12 04:03:47;;;;;;;2.95;1.75;;;;;;;;;;4994814;28;20612;-49
2023/08/12 04:06:13;;;;;;;3.28;2.15;;;;;;;;;;4989500;28;20213;-49
2023/08/12 04:08:39;;;;;;;2.22;1.98;;;;;;;;;;4997291;28;20215;-49
2023/08/12 04:11:05;;;;;;;2.17;1.98;;;;;;;;;;4996324;28;20185;-49
2023/08/12 04:13:31;;;;;;;2.63;2.05;;;;;;;;;;4992495;28;20284;-49
2023/08/12 04:15:57;;;;;;;3.58;2.10;;;;;;;;;;4997971;28;20539;-49
2023/08/12 04:18:23;;;;;;;2.28;2.08;;;;;;;;;;4997123;28;20193;-49
2023/08/12 04:20:50;;;;;;;2.67;2.45;;;;;;;;;;4990783;28;20186;-49
2023/08/12 04:23:16;;;;;;;2.88;1.70;;;;;;;;;;4997370;28;20189;-48
2023/08/12 04:25:46;;;;;;;2.65;2.08;;;;;;;;;;4990858;28;20376;-49
2023/08/12 04:28:13;;;;;;;2.45;2.00;;;;;;;;;;4996766;28;20515;-48
2023/08/12 04:30:43;;;;;;;3.40;2.17;;;;;;;;;;4998123;28;20271;-49
2023/08/12 04:33:08;;;;;;;2.55;2.00;;;;;;;;;;4996581;28;20579;-49
2023/08/12 04:35:34;;;;;;;2.42;2.08;;;;;;;;;;4995469;28;20184;-49
2023/08/12 04:38:00;;;;;;;3.03;2.40;;;;;;;;;;4987684;28;20565;-49
2023/08/12 04:40:26;;;;;;;2.15;1.90;;;;;;;;;;5001120;28;20204;-49
2023/08/12 04:42:52;;;;;;;5.13;2.08;;;;;;;;;;4998052;28;20447;-49
2023/08/12 04:45:18;;;;;;;2.05;1.85;;;;;;;;;;4991577;28;20227;-49
2023/08/12 04:47:44;;;;;;;3.90;2.25;;;;;;;;;;4998216;28;20195;-49
2023/08/12 04:50:10;;;;;;;2.40;1.90;;;;;;;;;;4997951;28;20185;-49
2023/08/12 04:52:36;;;;;;;2.35;2.15;;;;;;;;;;4996147;28;20247;-49
2023/08/12 04:55:03;;;;;;;2.25;2.05;;;;;;;;;;4988575;28;20186;-49
2023/08/12 04:57:28;;;;;;;2.38;2.03;;;;;;;;;;4992227;28;20191;-49
2023/08/12 04:59:55;;;;;;;2.80;2.15;;;;;;;;;;4993975;28;20209;-49
2023/08/12 05:02:21;;;;;;;3.53;2.10;;;;;;;;;;5007779;28;20180;-49
2023/08/12 05:04:51;;;;;;;2.20;1.95;;;;;;;;;;4997719;28;20178;-49
2023/08/12 05:07:18;;;;;;;2.00;1.80;;;;;;;;;;5003871;28;20180;-49
2023/08/12 05:09:44;;;;;;;2.40;2.20;;;;;;;;;;5006250;28;20276;-49
2023/08/12 05:12:10;;;;;;;2.13;1.90;;;;;;;;;;4989954;28;20213;-49
2023/08/12 05:14:37;;;;;;;3.05;2.15;;;;;;;;;;4993303;28;20213;-49
2023/08/12 05:17:03;;;;;;;2.30;2.10;;;;;;;;;;4990823;28;20573;-49
2023/08/12 05:19:29;;;;;;;2.20;2.00;;;;;;;;;;4997231;28;20219;-49
2023/08/12 05:21:54;;;;;;;2.13;1.75;;;;;;;;;;4996958;28;20197;-49
2023/08/12 05:24:20;;;;;;;3.13;1.70;;;;;;;;;;4997590;28;20177;-49
2023/08/12 05:26:47;;;;;;;2.53;1.88;;;;;;;;;;4995636;28;20192;-49
2023/08/12 05:29:13;;;;;;;2.40;2.10;;;;;;;;;;4996887;28;20193;-49
2023/08/12 05:31:39;;;;;;;2.30;2.10;;;;;;;;;;4997432;28;20192;-49
2023/08/12 05:34:05;;;;;;;2.67;2.25;;;;;;;;;;4996596;28;20205;-49
2023/08/12 05:36:31;;;;;;;3.47;2.20;;;;;;;;;;5003412;28;20177;-49
2023/08/12 05:38:57;;;;;;;2.88;2.20;;;;;;;;;;4989246;28;20209;-49
2023/08/12 05:41:23;;;;;;;3.13;1.90;;;;;;;;;;4993717;28;20193;-49
2023/08/12 05:43:49;;;;;;;2.80;2.20;;;;;;;;;;4996161;28;20186;-49
2023/08/12 05:46:15;;;;;;;4.28;2.28;;;;;;;;;;4993286;28;20677;-49
2023/08/12 05:48:41;;;;;;;2.30;2.10;;;;;;;;;;4991471;28;20200;-48
2023/08/12 05:51:07;;;;;;;2.10;1.77;;;;;;;;;;4996128;28;20490;-49
2023/08/12 05:53:33;;;;;;;2.15;1.98;;;;;;;;;;4989854;28;20598;-49
2023/08/12 05:55:59;;;;;;;3.63;1.95;;;;;;;;;;4993035;28;20236;-49
2023/08/12 05:58:25;;;;;;;4.95;2.00;;;;;;;;;;4995049;28;20189;-49
2023/08/12 06:00:51;;;;;;;2.72;2.35;;;;;;;;;;4996575;28;20181;-49
2023/08/12 06:03:17;;;;;;;2.10;1.98;;;;;;;;;;4995094;28;20188;-49
2023/08/12 06:05:44;;;;;;;1.75;1.65;;;;;;;;;;4992203;28;20595;-49
2023/08/12 06:08:10;;;;;;;2.20;2.00;;;;;;;;;;5001342;28;20429;-49
2023/08/12 06:10:36;;;;;;;2.03;1.83;;;;;;;;;;4995171;28;20197;-48
2023/08/12 06:13:01;;;;;;;1.88;1.77;;;;;;;;;;4996959;28;20210;-49
2023/08/12 06:15:27;;;;;;;2.10;1.90;;;;;;;;;;5001589;28;20323;-49
2023/08/12 06:17:53;;;;;;;3.28;2.03;;;;;;;;;;4999410;28;20192;-49
2023/08/12 06:20:19;;;;;;;2.40;2.00;;;;;;;;;;5009195;28;20300;-48
2023/08/12 06:22:45;;;;;;;2.10;1.90;;;;;;;;;;4987536;28;20181;-49
2023/08/12 06:25:11;;;;;;;2.45;1.90;;;;;;;;;;4993731;28;20487;-49
2023/08/12 06:27:37;;;;;;;1.55;1.45;;;;;;;;;;4994663;28;20479;-49
2023/08/12 06:30:03;;;;;;;1.80;1.70;;;;;;;;;;5015214;28;20729;-49
2023/08/12 06:32:29;;;;;;;3.40;2.17;;;;;;;;;;4988533;28;20191;-49
2023/08/12 06:34:55;;;;;;;2.30;2.10;;;;;;;;;;4989208;28;20178;-49
2023/08/12 06:37:21;;;;;;;2.25;2.05;;;;;;;;;;4995531;28;20269;-49
2023/08/12 06:39:47;;;;;;;2.08;1.88;;;;;;;;;;4989847;28;20467;-49
2023/08/12 06:42:13;;;;;;;2.20;2.00;;;;;;;;;;4987968;28;20194;-49
2023/08/12 06:44:39;;;;;;;1.77;1.52;;;;;;;;;;5001277;28;20188;-49
2023/08/12 06:47:05;;;;;;;2.60;2.20;;;;;;;;;;4995029;28;20196;-49
2023/08/12 06:49:31;;;;;;;1.90;1.80;;;;;;;;;;4994091;28;20448;-49
2023/08/12 06:51:56;;;;;;;3.38;1.90;;;;;;;;;;5002614;28;20197;-49
2023/08/12 06:54:22;;;;;;;2.17;1.60;;;;;;;;;;4995102;28;20182;-48
2023/08/12 06:56:49;;;;;;;5.75;1.60;;;;;;;;;;4994899;28;20195;-49
2023/08/12 06:59:15;;;;;;;1.83;1.58;;;;;;;;;;4993968;28;20216;-49
2023/08/12 07:01:41;;;;;;;2.85;1.95;;;;;;;;;;4995994;28;20186;-49
2023/08/12 07:04:06;;;;;;;2.90;1.83;;;;;;;;;;4996696;28;20185;-49
2023/08/12 07:06:32;;;;;;;3.13;1.70;;;;;;;;;;4995850;28;20188;-49
2023/08/12 07:08:58;;;;;;;1.95;1.73;;;;;;;;;;4994563;28;20189;-49
2023/08/12 07:11:24;;;;;;;2.25;1.90;;;;;;;;;;4995361;28;20192;-49
2023/08/12 07:13:50;;;;;;;2.13;1.80;;;;;;;;;;4993809;28;20319;-48
2023/08/12 07:16:16;;;;;;;3.03;1.88;;;;;;;;;;4995445;28;20211;-48
2023/08/12 07:18:42;;;;;;;2.08;1.90;;;;;;;;;;4992453;28;20255;-48
2023/08/12 07:21:08;;;;;;;2.45;1.77;;;;;;;;;;4996148;28;20184;-49
2023/08/12 07:23:34;;;;;;;2.83;2.00;;;;;;;;;;4998916;28;20263;-48
2023/08/12 07:26:00;;;;;;;2.38;1.98;;;;;;;;;;4999390;28;20177;-48
2023/08/12 07:28:26;;;;;;;2.08;1.88;;;;;;;;;;4994385;28;20208;-49
2023/08/12 07:30:52;;;;;;;2.10;1.90;;;;;;;;;;4999450;28;20177;-49
2023/08/12 07:33:18;;;;;;;3.80;1.80;;;;;;;;;;4999345;28;20220;-48
2023/08/12 07:35:44;;;;;;;2.80;1.80;;;;;;;;;;4999437;28;20255;-48
2023/08/12 07:38:10;;;;;;;2.08;1.73;;;;;;;;;;4996973;28;20260;-48
2023/08/12 07:40:36;;;;;;;1.80;1.70;;;;;;;;;;4996981;28;20260;-48
2023/08/12 07:43:02;;;;;;;4.22;2.03;;;;;;;;;;4994321;28;20216;-48
2023/08/12 07:45:28;;;;;;;2.47;1.65;;;;;;;;;;4995886;28;20234;-48
2023/08/12 07:47:54;;;;;;;2.03;1.45;;;;;;;;;;4997218;28;20532;-49
2023/08/12 07:50:20;;;;;;;2.08;1.83;;;;;;;;;;4999313;28;20181;-48
2023/08/12 07:52:46;;;;;;;6.10;2.50;;;;;;;;;;4991012;28;20624;-48
2023/08/12 07:55:12;;;;;;;3.88;1.70;;;;;;;;;;4997135;28;20260;-48
2023/08/12 07:57:38;;;;;;;2.42;2.05;;;;;;;;;;4991951;28;20560;-48
2023/08/12 08:00:05;;;;;;;2.50;2.00;;;;;;;;;;4988424;28;20220;-48
2023/08/12 08:02:31;;;;;;;1.80;1.70;;;;;;;;;;4999334;28;20216;-49
2023/08/12 08:04:57;;;;;;;3.85;1.80;;;;;;;;;;5007905;28;20209;-48
2023/08/12 08:07:23;;;;;;;2.95;1.92;;;;;;;;;;5009402;28;20186;-48
2023/08/12 08:09:49;;;;;;;5.72;1.90;;;;;;;;;;4991916;28;20196;-49
2023/08/12 08:12:15;;;;;;;2.03;1.88;;;;;;;;;;4991737;28;20190;-49
2023/08/12 08:14:41;;;;;;;2.00;1.77;;;;;;;;;;5007404;28;20505;-48
2023/08/12 08:17:07;;;;;;;1.60;1.50;;;;;;;;;;4998183;28;20192;-48
2023/08/12 08:19:33;;;;;;;1.80;1.70;;;;;;;;;;5006975;28;20204;-49
2023/08/12 08:21:59;;;;;;;2.45;2.00;;;;;;;;;;4995578;28;20185;-49
2023/08/12 08:24:25;;;;;;;2.42;1.70;;;;;;;;;;5005906;28;20192;-48
2023/08/12 08:26:51;;;;;;;3.70;2.00;;;;;;;;;;4999766;28;20181;-49
2023/08/12 08:29:17;;;;;;;4.68;1.88;;;;;;;;;;4997220;28;20453;-48
2023/08/12 08:31:43;;;;;;;1.90;1.80;;;;;;;;;;4996022;28;20204;-48
2023/08/12 08:34:09;;;;;;;2.03;1.83;;;;;;;;;;4998564;28;20193;-49
2023/08/12 08:36:36;;;;;;;3.58;1.92;;;;;;;;;;4998317;28;20181;-49
2023/08/12 08:39:03;;;;;;;2.17;1.80;;;;;;;;;;5008140;28;20456;-49
2023/08/12 08:41:30;;;;;;;1.70;1.60;;;;;;;;;;4996640;28;20173;-49
2023/08/12 08:43:59;;;;;;;2.70;2.00;;;;;;;;;;4995803;28;20214;-49
2023/08/12 08:46:25;;;;;;;1.98;1.75;;;;;;;;;;4997985;28;20201;-49
2023/08/12 08:48:51;;;;;;;3.40;1.60;;;;;;;;;;4999265;28;20196;-49
2023/08/12 08:51:18;;;;;;;2.10;1.90;;;;;;;;;;4994187;28;20248;-49
2023/08/12 08:53:44;;;;;;;1.85;1.75;;;;;;;;;;4999145;28;20221;-49
2023/08/12 08:56:11;;;;;;;2.22;1.80;;;;;;;;;;4992154;28;20628;-49
2023/08/12 08:58:38;;;;;;;1.60;1.50;;;;;;;;;;4997030;28;20181;-49
2023/08/12 09:01:06;;;;;;;1.55;1.40;;;;;;;;;;4997700;28;20185;-48
2023/08/12 09:03:32;;;;;;;1.20;1.10;;;;;;;;;;5014727;28;20207;-48
2023/08/12 09:05:58;;;;;;;3.05;1.23;;;;;;;;;;5017267;28;20215;-48
2023/08/12 09:08:25;;;;;;;3.45;1.30;;;;;;;;;;5001541;28;20264;-48
2023/08/12 09:10:51;;;;;;;2.53;1.38;;;;;;;;;;4990681;28;20177;-48
2023/08/12 09:13:18;;;;;;;2.67;1.42;;;;;;;;;;4992209;28;20285;-49
2023/08/12 09:15:44;;;;;;;1.50;1.40;;;;;;;;;;4995840;28;20427;-49
2023/08/12 09:18:10;;;;;;;1.77;1.48;;;;;;;;;;5008012;28;20191;-49
2023/08/12 09:20:36;;;;;;;1.50;1.40;;;;;;;;;;4993755;28;20210;-48
2023/08/12 09:23:03;;;;;;;5.25;1.48;;;;;;;;;;4995554;28;20256;-49
2023/08/12 09:25:29;;;;;;;14.38;1.50;;;;;;;;;;4993648;28;20586;-48
2023/08/12 09:27:56;;;;;;;2.85;1.40;;;;;;;;;;4996790;28;20753;-48
2023/08/12 09:30:22;;;;;;;2.85;1.40;;;;;;;;;;4996925;28;20189;-49
2023/08/12 09:33:03;;;;;;;1.40;1.30;;;;;;;;;;5006061;28;20172;-48
2023/08/12 09:35:36;;;;;;;1.80;1.40;;;;;;;;;;5002048;28;20292;-49
2023/08/12 09:38:06;;;;;;;2.53;1.20;;;;;;;;;;4992358;28;20559;-48
2023/08/12 09:40:33;;;;;;;1.85;1.38;;;;;;;;;;4996954;28;20208;-49
2023/08/12 09:42:59;;;;;;;1.40;1.30;;;;;;;;;;4997778;28;20192;-49
2023/08/12 09:45:26;;;;;;;1.17;1.08;;;;;;;;;;4995217;28;20188;-49
2023/08/12 09:47:52;;;;;;;1.38;1.27;;;;;;;;;;4988432;28;20182;-49
2023/08/12 09:50:21;;;;;;;2.85;1.20;;;;;;;;;;5006649;28;20221;-48
2023/08/12 09:52:47;;;;;;;1.55;1.13;;;;;;;;;;5016601;28;20227;-48
2023/08/12 09:55:15;;;;;;;1.00;0.98;;;;;;;;;;5003367;28;20220;-49
2023/08/12 09:57:43;;;;;;;2.13;1.20;;;;;;;;;;5006834;28;20201;-48
2023/08/12 10:00:16;;;;;;;1.17;1.10;;;;;;;;;;5001799;28;20282;-48
2023/08/12 10:02:43;;;;;;;1.30;1.20;;;;;;;;;;4990291;28;20265;-48
2023/08/12 10:05:11;;;;;;;1.65;1.30;;;;;;;;;;4995051;28;20177;-48
2023/08/12 10:07:38;;;;;;;1.38;1.25;;;;;;;;;;4992068;28;20181;-49
2023/08/12 10:10:05;;;;;;;1.40;1.30;;;;;;;;;;4994813;28;20236;-49
2023/08/12 10:12:31;;;;;;;2.20;0.90;;;;;;;;;;5001767;28;20181;-49
2023/08/12 10:14:57;;;;;;;1.42;1.30;;;;;;;;;;4995845;28;20247;-48
2023/08/12 10:17:24;;;;;;;2.13;1.20;;;;;;;;;;4994678;28;20190;-49
2023/08/12 10:19:55;;;;;;;1.40;1.30;;;;;;;;;;4993636;28;20207;-49
2023/08/12 10:22:21;;;;;;;1.27;1.17;;;;;;;;;;4992728;28;20213;-48
2023/08/12 10:24:48;;;;;;;1.50;1.40;;;;;;;;;;4994095;28;20181;-48
2023/08/12 10:27:14;;;;;;;2.00;1.38;;;;;;;;;;4994196;28;20675;-48
2023/08/12 10:29:43;;;;;;;2.08;1.50;;;;;;;;;;4997682;28;20193;-49
2023/08/12 10:32:09;;;;;;;1.60;1.30;;;;;;;;;;4997686;28;20564;-48
2023/08/12 10:34:35;;;;;;;1.02;1.02;;;;;;;;;;5002970;28;20207;-48
2023/08/12 10:37:03;;;;;;;1.75;1.10;;;;;;;;;;4996031;28;20181;-49
2023/08/12 10:39:31;;;;;;;1.20;1.10;;;;;;;;;;4992826;28;20233;-48
2023/08/12 10:41:58;;;;;;;1.38;1.27;;;;;;;;;;4996579;28;20260;-48
2023/08/12 10:44:28;;;;;;;1.05;1.05;;;;;;;;;;5008099;28;20192;-48
2023/08/12 10:46:54;;;;;;;2.55;1.20;;;;;;;;;;4991117;28;20190;-49
2023/08/12 10:49:21;;;;;;;1.05;0.90;;;;;;;;;;4990497;28;20463;-49
2023/08/12 10:51:51;;;;;;;2.90;1.10;;;;;;;;;;4995697;28;20555;-49
2023/08/12 10:54:23;;;;;;;1.48;1.10;;;;;;;;;;4997676;28;20193;-48
2023/08/12 10:57:10;;;;;;;1.80;1.20;;;;;;;;;;5003417;28;20188;-49
2023/08/12 10:59:45;;;;;;;1.00;1.00;;;;;;;;;;4984934;28;20197;-49
2023/08/12 11:02:18;;;;;;;1.92;1.17;;;;;;;;;;4999547;28;20607;-49
2023/08/12 11:04:45;;;;;;;1.00;1.00;;;;;;;;;;4996067;28;20277;-49
2023/08/12 11:07:21;;;;;;;1.60;1.48;;;;;;;;;;5015215;28;20238;-49
2023/08/12 11:09:52;;;;;;;1.42;1.33;;;;;;;;;;4990274;28;20263;-48
2023/08/12 11:12:18;;;;;;;1.60;1.48;;;;;;;;;;4988124;28;20828;-49
2023/08/12 11:14:49;;;;;;;1.75;1.45;;;;;;;;;;4990028;28;20226;-49
2023/08/12 11:17:15;;;;;;;3.03;1.70;;;;;;;;;;4987688;28;20185;-49
2023/08/12 11:19:42;;;;;;;1.70;1.60;;;;;;;;;;4989738;28;20209;-48
2023/08/12 11:22:08;;;;;;;2.15;1.58;;;;;;;;;;4990008;28;20188;-49
2023/08/12 11:24:35;;;;;;;1.50;1.40;;;;;;;;;;4990904;28;20193;-48
2023/08/12 11:27:02;;;;;;;3.78;1.48;;;;;;;;;;4990803;28;20260;-49
2023/08/12 11:29:28;;;;;;;1.70;1.60;;;;;;;;;;4991752;28;20199;-48
2023/08/12 11:31:54;;;;;;;3.95;1.65;;;;;;;;;;4995758;28;20189;-49
2023/08/12 11:34:20;;;;;;;1.92;1.67;;;;;;;;;;4995216;28;20196;-48
2023/08/12 11:36:46;;;;;;;1.60;1.50;;;;;;;;;;4993989;28;20466;-48
2023/08/12 11:39:12;;;;;;;1.95;1.70;;;;;;;;;;4990829;28;20193;-49
2023/08/12 11:41:38;;;;;;;4.18;1.70;;;;;;;;;;4992131;28;20197;-48
2023/08/12 11:44:04;;;;;;;2.08;1.50;;;;;;;;;;4986953;28;20191;-48
2023/08/12 11:46:33;;;;;;;1.85;1.70;;;;;;;;;;4988746;28;20193;-49
2023/08/12 11:48:59;;;;;;;3.15;1.90;;;;;;;;;;4989175;28;20309;-49
2023/08/12 11:51:25;;;;;;;1.75;1.65;;;;;;;;;;4989389;28;20268;-49
2023/08/12 11:53:51;;;;;;;4.57;2.20;;;;;;;;;;4989451;28;20264;-49
2023/08/12 11:56:17;;;;;;;1.85;1.42;;;;;;;;;;4991283;28;20323;-49
2023/08/12 11:58:43;;;;;;;4.03;1.70;;;;;;;;;;4988684;28;20572;-49
2023/08/12 12:01:10;;;;;;;5.22;1.92;;;;;;;;;;4985261;28;20201;-48
2023/08/12 12:03:36;;;;;;;2.40;1.77;;;;;;;;;;4987207;28;20189;-49
2023/08/12 12:06:02;;;;;;;2.63;1.63;;;;;;;;;;4992330;28;20178;-49
2023/08/12 12:08:31;;;;;;;1.75;1.50;;;;;;;;;;4997411;28;20503;-49
2023/08/12 12:10:57;;;;;;;1.42;1.33;;;;;;;;;;4998068;28;20189;-49
2023/08/12 12:13:25;;;;;;;3.40;1.95;;;;;;;;;;5009937;28;20184;-49
2023/08/12 12:15:53;;;;;;;2.10;1.70;;;;;;;;;;5006373;28;20188;-48
2023/08/12 12:18:19;;;;;;;1.77;1.50;;;;;;;;;;4993535;28;20189;-48
2023/08/12 12:20:55;;;;;;;5.72;1.70;;;;;;;;;;4994365;28;20217;-49
2023/08/12 12:23:21;;;;;;;2.30;1.60;;;;;;;;;;5000446;28;20185;-48
2023/08/12 12:25:47;;;;;;;3.65;1.52;;;;;;;;;;4996836;28;20200;-48
2023/08/12 12:28:13;;;;;;;1.50;1.40;;;;;;;;;;4999974;28;20188;-48
2023/08/12 12:30:39;;;;;;;3.47;1.40;;;;;;;;;;5006022;28;20186;-49
2023/08/12 12:33:05;;;;;;;2.65;1.65;;;;;;;;;;5007800;28;20176;-49
2023/08/12 12:35:31;;;;;;;1.70;1.60;;;;;;;;;;4992159;28;20185;-49
2023/08/12 12:37:57;;;;;;;2.95;1.50;;;;;;;;;;5007642;28;20240;-49
2023/08/12 12:40:23;;;;;;;2.05;1.85;;;;;;;;;;4998419;28;20228;-49
2023/08/12 12:42:49;;;;;;;2.58;1.60;;;;;;;;;;5000243;28;20181;-49
2023/08/12 12:45:15;;;;;;;1.40;1.30;;;;;;;;;;5000835;28;20181;-49
2023/08/12 12:47:41;;;;;;;2.38;1.48;;;;;;;;;;4999353;28;20177;-49
2023/08/12 12:50:07;;;;;;;2.15;1.30;;;;;;;;;;4995470;28;20204;-49
2023/08/12 12:52:33;;;;;;;1.83;1.30;;;;;;;;;;4990510;28;20194;-49
2023/08/12 12:55:00;;;;;;;1.55;1.45;;;;;;;;;;4995580;28;20500;-49
2023/08/12 12:57:26;;;;;;;1.90;1.80;;;;;;;;;;5000039;28;20185;-49
2023/08/12 12:59:52;;;;;;;1.60;1.50;;;;;;;;;;5001220;28;20589;-49
2023/08/12 13:02:18;;;;;;;1.60;1.50;;;;;;;;;;4997242;28;20176;-48
2023/08/12 13:04:44;;;;;;;2.17;1.77;;;;;;;;;;5017675;28;20556;-49
2023/08/12 13:07:10;;;;;;;1.83;1.50;;;;;;;;;;4998573;28;20575;-49
2023/08/12 13:09:36;;;;;;;1.67;1.58;;;;;;;;;;4995164;28;20197;-49
2023/08/12 13:12:02;;;;;;;2.38;1.67;;;;;;;;;;4997466;28;20193;-49
2023/08/12 13:14:30;;;;;;;1.77;1.58;;;;;;;;;;4997578;28;20204;-49
2023/08/12 13:16:56;;;;;;;1.75;1.50;;;;;;;;;;4997698;28;20267;-49
2023/08/12 13:19:22;;;;;;;2.25;1.50;;;;;;;;;;4985443;28;20233;-49
2023/08/12 13:21:48;;;;;;;1.48;1.38;;;;;;;;;;4996389;28;20192;-49
2023/08/12 13:24:15;;;;;;;3.20;1.50;;;;;;;;;;4998785;28;20284;-49
2023/08/12 13:26:41;;;;;;;6.43;1.63;;;;;;;;;;4997379;28;20185;-49
2023/08/12 13:29:07;;;;;;;4.57;1.92;;;;;;;;;;4996758;28;20185;-49
2023/08/12 13:31:33;;;;;;;11.00;2.92;;;;;;;;;;5011446;28;20246;-48
2023/08/12 13:33:59;;;;;;;6.25;2.72;;;;;;;;;;5016632;28;20188;-48
2023/08/12 13:36:25;;;;;;;8.85;2.50;;;;;;;;;;5017133;28;20188;-49
2023/08/12 13:38:50;;;;;;;3.33;1.70;;;;;;;;;;5000103;28;20225;-48
2023/08/12 13:41:17;;;;;;;3.35;1.98;;;;;;;;;;4996101;28;20268;-49
2023/08/12 13:43:42;;;;;;;3.13;1.80;;;;;;;;;;5010546;28;20184;-49
2023/08/12 13:46:09;;;;;;;4.82;1.55;;;;;;;;;;5013545;28;20207;-49
2023/08/12 13:48:35;;;;;;;1.65;1.35;;;;;;;;;;5005534;28;20177;-49
2023/08/12 13:51:03;;;;;;;3.95;1.40;;;;;;;;;;4996721;28;20537;-48
2023/08/12 13:53:29;;;;;;;1.70;1.50;;;;;;;;;;4995557;28;20211;-49
2023/08/12 13:55:55;;;;;;;1.85;1.45;;;;;;;;;;4990274;28;20178;-49
2023/08/12 13:58:21;;;;;;;1.85;1.50;;;;;;;;;;4986604;28;20176;-49
2023/08/12 14:00:47;;;;;;;1.50;1.40;;;;;;;;;;4985357;28;20218;-49
2023/08/12 14:03:13;;;;;;;2.13;1.55;;;;;;;;;;4990172;28;20288;-49
2023/08/12 14:05:39;;;;;;;4.05;1.40;;;;;;;;;;4995580;28;20188;-50
2023/08/12 14:08:05;;;;;;;2.55;1.30;;;;;;;;;;4995622;28;20189;-50
2023/08/12 14:10:31;;;;;;;2.20;1.40;;;;;;;;;;4991914;28;20253;-48
2023/08/12 14:12:57;;;;;;;1.42;1.33;;;;;;;;;;4991472;28;20288;-48
2023/08/12 14:15:23;;;;;;;2.92;1.50;;;;;;;;;;4996479;28;20535;-49
2023/08/12 14:17:49;;;;;;;2.17;1.40;;;;;;;;;;4996410;28;20204;-49
2023/08/12 14:20:15;;;;;;;1.42;1.33;;;;;;;;;;4994950;28;20475;-49
2023/08/12 14:22:43;;;;;;;1.60;1.40;;;;;;;;;;4996217;28;20196;-49
2023/08/12 14:25:10;;;;;;;1.67;1.58;;;;;;;;;;4994534;28;20263;-49
2023/08/12 14:27:37;;;;;;;2.85;1.52;;;;;;;;;;5001260;28;20185;-49
2023/08/12 14:30:03;;;;;;;2.03;1.30;;;;;;;;;;4990235;28;20185;-49
2023/08/12 14:32:29;;;;;;;3.60;1.55;;;;;;;;;;4999304;28;20303;-49
2023/08/12 14:34:55;;;;;;;1.40;1.30;;;;;;;;;;5009694;28;20268;-49
2023/08/12 14:37:21;;;;;;;1.80;1.50;;;;;;;;;;4996457;28;20200;-49
2023/08/12 14:39:47;;;;;;;2.33;1.50;;;;;;;;;;4988908;28;20566;-51